Time;durP1;ratioP1;P1;durP2;ratioP2;P2;SDS_P1;SDS_P2;PMS_P1;PMS_P2;Temp;Humidity;BMP_temperature;BMP_pressure;BME280_temperature;BME280_humidity;BME280_pressure;Samples;Min_cycle;Max_cycle;Signal;HPM_P1;HPM_P2
2023/12/10 00:00:00;;;;;;;41.05;18.45;;;;;;;0.62;100.00;99247.00;5013307;28;20040;-76
2023/12/10 00:02:27;;;;;;;37.08;17.73;;;;;;;0.66;100.00;99241.28;5013269;28;20494;-76
2023/12/10 00:04:55;;;;;;;34.13;17.35;;;;;;;0.64;100.00;99247.34;5012177;28;20037;-75
2023/12/10 00:07:20;;;;;;;34.88;16.52;;;;;;;0.66;100.00;99247.69;5013329;28;20360;-75
2023/12/10 00:09:46;;;;;;;30.23;16.20;;;;;;;0.74;100.00;99242.59;5013676;28;20497;-73
2023/12/10 00:12:11;;;;;;;33.33;16.48;;;;;;;0.79;100.00;99228.75;5013118;28;20351;-74
2023/12/10 00:14:39;;;;;;;33.15;15.93;;;;;;;0.77;100.00;99222.00;5013244;28;20419;-76
2023/12/10 00:17:05;;;;;;;33.38;15.52;;;;;;;0.88;100.00;99236.50;5013452;28;20549;-75
2023/12/10 00:19:31;;;;;;;33.65;17.52;;;;;;;0.90;100.00;99240.44;5012685;28;20029;-75
2023/12/10 00:21:58;;;;;;;34.33;17.20;;;;;;;0.90;100.00;99226.38;5013014;28;20145;-76
2023/12/10 00:24:24;;;;;;;33.15;17.58;;;;;;;0.90;100.00;99232.00;5013074;28;20384;-75
2023/12/10 00:26:51;;;;;;;34.47;17.55;;;;;;;0.85;100.00;99218.53;5013038;28;20073;-75
2023/12/10 00:29:17;;;;;;;38.40;19.02;;;;;;;0.88;100.00;99226.03;5013204;28;20446;-74
2023/12/10 00:31:52;;;;;;;33.25;18.38;;;;;;;0.91;100.00;99224.38;5013091;28;20109;-76
2023/12/10 00:34:19;;;;;;;34.50;16.65;;;;;;;0.90;100.00;99214.34;5013028;28;20033;-75
2023/12/10 00:36:44;;;;;;;37.45;17.92;;;;;;;0.90;100.00;99215.13;5013134;28;20375;-77
2023/12/10 00:39:11;;;;;;;35.40;16.92;;;;;;;0.94;100.00;99220.63;5013035;28;20025;-74
2023/12/10 00:41:37;;;;;;;34.35;17.45;;;;;;;0.95;100.00;99217.38;5012562;28;20065;-76
2023/12/10 00:44:03;;;;;;;31.08;16.35;;;;;;;0.91;100.00;99213.13;5013123;28;20036;-75
2023/12/10 00:46:30;;;;;;;34.00;17.65;;;;;;;0.96;100.00;99218.94;5011634;28;20033;-75
2023/12/10 00:48:56;;;;;;;36.13;18.70;;;;;;;1.00;100.00;99218.81;5014937;28;20108;-76
2023/12/10 00:51:22;;;;;;;37.35;17.70;;;;;;;1.14;100.00;99229.56;5016739;28;20478;-74
2023/12/10 00:53:49;;;;;;;33.60;16.88;;;;;;;1.16;100.00;99231.94;5016704;28;20117;-76
2023/12/10 00:56:15;;;;;;;31.05;16.88;;;;;;;1.14;100.00;99237.22;5015539;28;20184;-77
2023/12/10 00:58:43;;;;;;;34.88;17.92;;;;;;;1.18;100.00;99227.41;5016645;28;20022;-75
2023/12/10 01:01:10;;;;;;;32.15;15.57;;;;;;;1.23;100.00;99226.84;5015112;28;20054;-76
2023/12/10 01:03:35;;;;;;;32.78;15.77;;;;;;;1.27;100.00;99250.00;5015022;28;20038;-74
2023/12/10 01:06:05;;;;;;;31.02;15.85;;;;;;;1.22;100.00;99236.53;5016120;28;20051;-75
2023/12/10 01:08:32;;;;;;;30.20;16.92;;;;;;;1.17;100.00;99225.84;5015232;28;20041;-75
2023/12/10 01:10:58;;;;;;;32.92;16.65;;;;;;;1.21;100.00;99229.31;5016019;28;20026;-74
2023/12/10 01:13:25;;;;;;;30.30;16.50;;;;;;;1.19;100.00;99242.28;5014786;28;20058;-74
2023/12/10 01:15:55;;;;;;;28.33;15.80;;;;;;;1.17;100.00;99248.34;5016053;28;20103;-74
2023/12/10 01:18:23;;;;;;;30.10;15.27;;;;;;;1.18;100.00;99251.94;5015978;28;20463;-74
2023/12/10 01:20:50;;;;;;;30.27;15.25;;;;;;;1.12;100.00;99262.19;5016117;28;20037;-74
2023/12/10 01:23:17;;;;;;;28.92;14.63;;;;;;;1.08;100.00;99256.69;5014746;28;20065;-75
2023/12/10 01:25:43;;;;;;;26.38;14.57;;;;;;;1.05;100.00;99249.19;5015903;28;20032;-75
2023/12/10 01:28:12;;;;;;;30.13;15.85;;;;;;;1.09;100.00;99254.69;5015844;28;20026;-75
2023/12/10 01:30:38;;;;;;;29.85;14.82;;;;;;;1.09;100.00;99244.22;5015891;28;20022;-74
2023/12/10 01:33:05;;;;;;;29.50;15.73;;;;;;;1.11;100.00;99249.41;5015622;28;20040;-75
2023/12/10 01:35:31;;;;;;;29.75;15.65;;;;;;;1.11;100.00;99247.34;5015659;28;20414;-75
2023/12/10 01:37:57;;;;;;;30.35;15.52;;;;;;;1.12;100.00;99237.69;5015568;28;20022;-74
2023/12/10 01:40:25;;;;;;;29.58;15.10;;;;;;;1.15;100.00;99239.59;5015521;28;20025;-76
2023/12/10 01:42:50;;;;;;;33.25;16.85;;;;;;;1.13;100.00;99247.69;5015531;28;20606;-74
2023/12/10 01:45:19;;;;;;;27.60;14.70;;;;;;;1.10;100.00;99256.25;5014101;28;20118;-74
2023/12/10 01:47:51;;;;;;;31.38;14.23;;;;;;;1.04;100.00;99265.28;5015767;28;20505;-76
2023/12/10 01:50:18;;;;;;;27.95;15.00;;;;;;;1.00;100.00;99275.88;5014414;28;20029;-75
2023/12/10 01:52:59;;;;;;;28.25;13.82;;;;;;;0.93;100.00;99275.28;5014194;28;20025;-74
2023/12/10 01:55:26;;;;;;;27.58;14.73;;;;;;;0.88;100.00;99267.44;5016141;28;20062;-75
2023/12/10 01:57:52;;;;;;;28.55;14.32;;;;;;;0.90;100.00;99250.91;5015874;28;20044;-78
2023/12/10 02:00:21;;;;;;;25.17;13.07;;;;;;;1.03;100.00;99249.63;5014878;28;20022;-79
2023/12/10 02:02:55;;;;;;;26.10;13.60;;;;;;;1.02;100.00;99250.88;5013130;28;20030;-76
2023/12/10 02:05:21;;;;;;;24.95;14.00;;;;;;;0.94;100.00;99245.94;5015528;28;20026;-76
2023/12/10 02:07:46;;;;;;;25.42;13.52;;;;;;;0.99;100.00;99237.72;5013907;28;20458;-75
2023/12/10 02:10:12;;;;;;;28.85;14.32;;;;;;;0.94;100.00;99218.59;5014443;28;20446;-75
2023/12/10 02:12:39;;;;;;;24.58;12.60;;;;;;;1.03;100.00;99218.69;5014952;28;20034;-75
2023/12/10 02:15:31;;;;;;;27.90;13.90;;;;;;;1.08;100.00;99208.88;5014876;28;20038;-74
2023/12/10 02:17:58;;;;;;;27.05;13.20;;;;;;;1.21;100.00;99206.00;5011136;28;20068;-76
2023/12/10 02:20:24;;;;;;;26.30;12.88;;;;;;;1.27;100.00;99209.81;5013815;28;20026;-74
2023/12/10 02:22:59;;;;;;;26.23;12.73;;;;;;;1.39;100.00;99217.44;5014570;28;20112;-75
2023/12/10 02:25:34;;;;;;;25.75;13.00;;;;;;;1.41;100.00;99198.84;5029881;28;20037;-74
2023/12/10 02:28:05;;;;;;;27.05;13.55;;;;;;;1.41;100.00;99184.78;5014978;28;20456;-76
2023/12/10 02:30:32;;;;;;;23.63;13.32;;;;;;;1.58;100.00;99191.00;5013436;28;20030;-75
2023/12/10 02:32:58;;;;;;;24.45;12.63;;;;;;;1.58;100.00;99195.84;5013239;28;20040;-73
2023/12/10 02:35:23;;;;;;;21.00;11.98;;;;;;;1.61;100.00;99190.06;5029621;28;20037;-74
2023/12/10 02:37:50;;;;;;;23.98;12.65;;;;;;;1.71;100.00;99180.44;4996993;28;20128;-74
2023/12/10 02:40:18;;;;;;;22.33;12.57;;;;;;;1.76;100.00;99187.50;5014504;28;20034;-76
2023/12/10 02:42:47;;;;;;;20.45;10.93;;;;;;;1.85;100.00;99179.88;5029878;28;20034;-75
2023/12/10 02:45:15;;;;;;;24.92;13.07;;;;;;;1.88;100.00;99178.19;5013307;28;20105;-74
2023/12/10 02:47:41;;;;;;;22.70;12.23;;;;;;;1.91;100.00;99166.78;5013331;28;20045;-76
2023/12/10 02:50:07;;;;;;;23.13;12.63;;;;;;;1.96;100.00;99175.88;5014454;28;20049;-75
2023/12/10 02:52:36;;;;;;;22.60;12.80;;;;;;;1.98;100.00;99179.81;5013397;28;20041;-74
2023/12/10 02:55:06;;;;;;;22.92;11.93;;;;;;;2.02;100.00;99174.03;5014737;28;20026;-75
2023/12/10 02:57:32;;;;;;;22.38;11.82;;;;;;;2.03;100.00;99190.47;5014617;28;20601;-75
2023/12/10 02:59:58;;;;;;;22.85;11.77;;;;;;;2.10;100.00;99193.00;5013179;28;20116;-74
2023/12/10 03:02:26;;;;;;;20.92;11.75;;;;;;;2.13;100.00;99180.81;5011728;28;20061;-76
2023/12/10 03:04:52;;;;;;;19.65;10.82;;;;;;;2.18;100.00;99177.41;5014244;28;20034;-73
2023/12/10 03:07:19;;;;;;;20.45;11.00;;;;;;;2.31;100.00;99191.38;5014436;28;20072;-76
2023/12/10 03:09:46;;;;;;;19.85;10.45;;;;;;;2.42;100.00;99182.50;5014229;28;20034;-74
2023/12/10 03:12:13;;;;;;;21.90;12.27;;;;;;;2.25;100.00;99168.66;5013203;28;20490;-74
2023/12/10 03:14:45;;;;;;;21.00;10.77;;;;;;;2.31;100.00;99186.53;5014117;28;20048;-75
2023/12/10 03:17:11;;;;;;;17.52;10.90;;;;;;;2.28;100.00;99179.00;5014185;28;20041;-74
2023/12/10 03:19:38;;;;;;;22.58;12.15;;;;;;;2.36;100.00;99179.50;5012651;28;20382;-75
2023/12/10 03:22:04;;;;;;;21.40;12.00;;;;;;;2.34;100.00;99182.78;5014204;28;20026;-75
2023/12/10 03:24:29;;;;;;;23.23;12.20;;;;;;;2.26;100.00;99175.06;5014059;28;20026;-74
2023/12/10 03:26:57;;;;;;;23.83;13.38;;;;;;;2.30;100.00;99193.41;5013430;28;20453;-75
2023/12/10 03:29:23;;;;;;;22.45;13.20;;;;;;;2.33;100.00;99192.50;5013899;28;20034;-74
2023/12/10 03:31:49;;;;;;;21.42;12.95;;;;;;;2.27;100.00;99183.06;5013653;28;20022;-74
2023/12/10 03:34:14;;;;;;;22.33;12.73;;;;;;;2.32;100.00;99195.78;5013927;28;20041;-74
2023/12/10 03:36:40;;;;;;;21.95;13.23;;;;;;;2.33;100.00;99198.13;5013977;28;20030;-73
2023/12/10 03:39:07;;;;;;;23.10;13.88;;;;;;;2.33;100.00;99203.78;5012702;28;20081;-75
2023/12/10 03:41:33;;;;;;;25.80;12.82;;;;;;;2.28;100.00;99181.03;5013739;28;20033;-74
2023/12/10 03:43:58;;;;;;;23.08;13.18;;;;;;;2.34;100.00;99202.50;5013598;28;20044;-74
2023/12/10 03:46:25;;;;;;;22.85;13.40;;;;;;;2.34;100.00;99202.50;5013791;28;20026;-74
2023/12/10 03:48:51;;;;;;;26.20;14.27;;;;;;;2.34;100.00;99213.00;5014002;28;20545;-74
2023/12/10 03:51:17;;;;;;;24.75;13.57;;;;;;;2.38;100.00;99210.84;5013639;28;20058;-75
2023/12/10 03:53:43;;;;;;;22.17;13.32;;;;;;;2.40;100.00;99213.97;5013747;28;20115;-75
2023/12/10 03:56:11;;;;;;;23.65;13.32;;;;;;;2.43;100.00;99213.03;5013547;28;20033;-74
2023/12/10 03:58:36;;;;;;;24.80;14.30;;;;;;;2.50;100.00;99214.78;5012207;28;20372;-77
2023/12/10 04:01:03;;;;;;;24.48;14.48;;;;;;;2.50;100.00;99214.78;5012378;28;20053;-74
2023/12/10 04:03:30;;;;;;;24.73;13.40;;;;;;;2.48;100.00;99214.47;5013747;28;20033;-74
2023/12/10 04:05:55;;;;;;;27.15;13.57;;;;;;;2.45;100.00;99223.84;4995763;28;20030;-74
2023/12/10 04:08:20;;;;;;;25.48;13.85;;;;;;;2.46;100.00;99229.03;5013492;28;20478;-74
2023/12/10 04:10:46;;;;;;;22.25;13.02;;;;;;;2.48;100.00;99218.06;5013700;28;20487;-75
2023/12/10 04:13:11;;;;;;;24.50;14.40;;;;;;;2.48;100.00;99228.56;5012883;28;20132;-75
2023/12/10 04:15:38;;;;;;;26.58;14.90;;;;;;;2.54;100.00;99212.63;5012017;28;20055;-75
2023/12/10 04:18:03;;;;;;;25.40;15.00;;;;;;;2.53;100.00;99225.94;5011903;28;20042;-74
2023/12/10 04:20:29;;;;;;;27.52;14.48;;;;;;;2.54;100.00;99223.91;5013524;28;20498;-74
2023/12/10 04:22:56;;;;;;;27.55;14.93;;;;;;;2.53;100.00;99225.94;5014142;28;20037;-75
2023/12/10 04:25:22;;;;;;;26.98;15.25;;;;;;;2.56;100.00;99233.44;5017236;28;20034;-74
2023/12/10 04:27:48;;;;;;;28.05;15.93;;;;;;;2.53;100.00;99230.78;5017025;28;20478;-75
2023/12/10 04:30:15;;;;;;;28.02;14.90;;;;;;;2.51;100.00;99228.41;5015737;28;20026;-74
2023/12/10 04:32:42;;;;;;;28.60;14.00;;;;;;;2.46;100.00;99229.03;5017240;28;20022;-76
2023/12/10 04:35:10;;;;;;;31.77;15.98;;;;;;;2.36;100.00;99218.97;5017251;28;20101;-74
2023/12/10 04:37:38;;;;;;;29.20;15.63;;;;;;;2.37;100.00;99233.84;5017122;28;20045;-75
2023/12/10 04:40:04;;;;;;;29.63;15.02;;;;;;;2.37;100.00;99231.81;5016840;28;20511;-75
2023/12/10 04:42:30;;;;;;;26.30;14.38;;;;;;;2.41;100.00;99228.84;5016717;28;20122;-74
2023/12/10 04:44:56;;;;;;;28.70;14.82;;;;;;;2.36;100.00;99235.88;5016973;28;20513;-73
2023/12/10 04:47:22;;;;;;;31.15;15.55;;;;;;;2.26;100.00;99240.69;5016728;28;20363;-74
2023/12/10 04:49:47;;;;;;;28.15;15.18;;;;;;;2.24;100.00;99242.41;5016835;28;20036;-76
2023/12/10 04:52:13;;;;;;;31.10;14.02;;;;;;;2.22;100.00;99240.03;5016935;28;20030;-75
2023/12/10 04:54:38;;;;;;;28.20;14.65;;;;;;;2.20;100.00;99250.97;5016855;28;20029;-75
2023/12/10 04:57:04;;;;;;;29.35;15.80;;;;;;;2.12;100.00;99257.34;5016827;28;20049;-75
2023/12/10 04:59:31;;;;;;;28.42;14.88;;;;;;;2.07;100.00;99266.41;5016922;28;20026;-73
2023/12/10 05:01:58;;;;;;;27.73;15.27;;;;;;;2.06;100.00;99253.56;5016404;28;20451;-75
2023/12/10 05:04:23;;;;;;;28.65;14.50;;;;;;;2.10;100.00;99262.66;5016588;28;20105;-74
2023/12/10 05:06:51;;;;;;;31.08;16.77;;;;;;;2.12;100.00;99258.13;5015081;28;20113;-73
2023/12/10 05:09:18;;;;;;;31.50;15.80;;;;;;;2.12;100.00;99269.41;5016279;28;20029;-74
2023/12/10 05:11:45;;;;;;;28.42;14.95;;;;;;;2.11;100.00;99258.59;5015788;28;20049;-73
2023/12/10 05:14:12;;;;;;;28.88;14.80;;;;;;;2.15;100.00;99262.06;5014883;28;20022;-74
2023/12/10 05:16:39;;;;;;;31.23;14.85;;;;;;;2.21;100.00;99261.00;5016379;28;20034;-74
2023/12/10 05:19:06;;;;;;;24.83;14.02;;;;;;;2.26;100.00;99251.94;5016261;28;20040;-74
2023/12/10 05:21:33;;;;;;;28.98;13.45;;;;;;;2.28;100.00;99255.09;5016022;28;20045;-75
2023/12/10 05:23:58;;;;;;;29.55;15.32;;;;;;;2.29;100.00;99262.28;4998329;28;20034;-75
2023/12/10 05:26:24;;;;;;;24.52;13.25;;;;;;;2.28;100.00;99251.50;5014984;28;20021;-75
2023/12/10 05:28:50;;;;;;;24.98;14.05;;;;;;;2.36;100.00;99269.69;4998480;28;20045;-74
2023/12/10 05:31:18;;;;;;;29.35;14.52;;;;;;;2.32;100.00;99269.84;5016065;28;20052;-75
2023/12/10 05:33:44;;;;;;;25.25;14.45;;;;;;;2.33;100.00;99268.59;5015998;28;20030;-75
2023/12/10 05:36:11;;;;;;;31.08;14.10;;;;;;;2.33;100.00;99279.88;5014939;28;20455;-74
2023/12/10 05:38:37;;;;;;;25.67;13.18;;;;;;;2.29;100.00;99279.19;5015952;28;20029;-75
2023/12/10 05:41:05;;;;;;;26.45;13.38;;;;;;;2.28;100.00;99277.66;5015922;28;20398;-74
2023/12/10 05:43:30;;;;;;;21.77;12.93;;;;;;;2.29;100.00;99281.25;5015861;28;20100;-74
2023/12/10 05:45:57;;;;;;;23.55;12.43;;;;;;;2.29;100.00;99282.03;5015733;28;20029;-73
2023/12/10 05:48:24;;;;;;;23.65;13.13;;;;;;;2.31;100.00;99284.38;5014456;28;20030;-74
2023/12/10 05:50:52;;;;;;;22.35;11.52;;;;;;;2.38;100.00;99291.78;5014232;28;20034;-73
2023/12/10 05:53:19;;;;;;;29.00;14.23;;;;;;;2.40;100.00;99297.72;5015301;28;20108;-74
2023/12/10 05:55:45;;;;;;;28.35;13.70;;;;;;;2.45;100.00;99302.78;5030633;28;20030;-75
2023/12/10 05:58:26;;;;;;;23.42;11.85;;;;;;;2.47;100.00;99301.06;5015664;28;20049;-74
2023/12/10 06:00:52;;;;;;;22.42;12.23;;;;;;;2.48;100.00;99293.41;5015631;28;20033;-76
2023/12/10 06:03:39;;;;;;;19.95;10.60;;;;;;;2.53;100.00;99306.91;5013902;28;20057;-75
2023/12/10 06:06:05;;;;;;;19.35;11.45;;;;;;;2.48;100.00;99307.50;5015153;28;20034;-75
2023/12/10 06:08:32;;;;;;;18.25;10.07;;;;;;;2.54;100.00;99317.69;5015315;28;20533;-75
2023/12/10 06:10:58;;;;;;;18.73;11.57;;;;;;;2.51;100.00;99312.22;5015123;28;20033;-75
2023/12/10 06:13:27;;;;;;;20.92;12.00;;;;;;;2.51;100.00;99309.38;5013485;28;20125;-76
2023/12/10 06:15:54;;;;;;;21.38;11.75;;;;;;;2.51;100.00;99318.63;5013485;28;20479;-76
2023/12/10 06:18:21;;;;;;;24.83;12.10;;;;;;;2.51;100.00;99320.66;5013882;28;20038;-75
2023/12/10 06:20:47;;;;;;;22.27;12.40;;;;;;;2.52;100.00;99323.03;5015219;28;20032;-75
2023/12/10 06:23:14;;;;;;;22.23;11.82;;;;;;;2.60;100.00;99324.31;5014878;28;20048;-75
2023/12/10 06:25:39;;;;;;;19.00;10.55;;;;;;;2.64;100.00;99327.00;5014921;28;20048;-76
2023/12/10 06:28:05;;;;;;;22.17;12.13;;;;;;;2.69;100.00;99341.28;5013532;28;20120;-76
2023/12/10 06:30:31;;;;;;;20.25;11.63;;;;;;;2.73;100.00;99333.47;5013143;28;20048;-75
2023/12/10 06:32:58;;;;;;;23.05;11.02;;;;;;;2.72;100.00;99331.91;5013377;28;20014;-75
2023/12/10 06:35:24;;;;;;;21.15;11.40;;;;;;;2.64;100.00;99327.78;5015123;28;20383;-78
2023/12/10 06:37:51;;;;;;;21.95;12.27;;;;;;;2.74;100.00;99346.31;5015332;28;20036;-78
2023/12/10 06:40:16;;;;;;;19.95;10.70;;;;;;;2.81;100.00;99347.28;5012454;28;20061;-78
2023/12/10 06:42:57;;;;;;;19.65;11.98;;;;;;;2.85;100.00;99359.22;5014887;28;20494;-78
2023/12/10 06:45:22;;;;;;;22.50;11.63;;;;;;;2.91;100.00;99369.44;5013565;28;20053;-76
2023/12/10 06:47:49;;;;;;;19.15;10.57;;;;;;;2.92;100.00;99365.38;5014552;28;20056;-76
2023/12/10 06:50:14;;;;;;;19.13;10.05;;;;;;;2.95;100.00;99375.72;5014635;28;20120;-76
2023/12/10 06:52:42;;;;;;;17.13;9.60;;;;;;;2.96;100.00;99380.13;5014692;28;20076;-76
2023/12/10 06:55:09;;;;;;;14.60;9.15;;;;;;;3.01;100.00;99387.97;5014779;28;20188;-77
2023/12/10 06:57:34;;;;;;;13.18;8.30;;;;;;;2.97;100.00;99392.19;5014563;28;20096;-76
2023/12/10 06:59:59;;;;;;;15.50;9.20;;;;;;;2.94;100.00;99399.53;5014413;28;20458;-79
2023/12/10 07:02:26;;;;;;;14.23;8.57;;;;;;;3.02;100.00;99405.69;5014252;28;20038;-76
2023/12/10 07:04:52;;;;;;;13.20;8.88;;;;;;;2.96;100.00;99399.06;5014551;28;20107;-77
2023/12/10 07:07:18;;;;;;;12.65;7.82;;;;;;;2.99;100.00;99401.75;5029065;28;20610;-78
2023/12/10 07:09:43;;;;;;;15.13;9.60;;;;;;;3.01;100.00;99396.44;5013078;28;20061;-77
2023/12/10 07:12:09;;;;;;;11.40;7.22;;;;;;;3.06;100.00;99393.03;5013346;28;20052;-76
2023/12/10 07:14:35;;;;;;;12.45;7.53;;;;;;;3.08;100.00;99393.31;5029063;28;20041;-75
2023/12/10 07:17:02;;;;;;;13.23;7.20;;;;;;;3.13;100.00;99394.78;5014203;28;20048;-76
2023/12/10 07:19:29;;;;;;;12.98;7.60;;;;;;;3.21;100.00;99399.66;5012938;28;20056;-76
2023/12/10 07:21:55;;;;;;;10.75;7.15;;;;;;;3.25;100.00;99404.38;5028777;28;20025;-76
2023/12/10 07:24:21;;;;;;;11.77;7.97;;;;;;;3.23;100.00;99399.97;5029238;28;20040;-77
2023/12/10 07:26:47;;;;;;;13.43;8.02;;;;;;;3.34;100.00;99401.56;5013901;28;20110;-75
2023/12/10 07:29:14;;;;;;;12.77;7.63;;;;;;;3.36;100.00;99399.88;5012859;28;20117;-75
2023/12/10 07:31:40;;;;;;;14.65;8.55;;;;;;;3.36;100.00;99402.69;5013639;28;20145;-75
2023/12/10 07:34:05;;;;;;;13.80;8.63;;;;;;;3.40;100.00;99400.50;5013850;28;20510;-76
2023/12/10 07:36:32;;;;;;;13.55;7.97;;;;;;;3.52;100.00;99408.09;5028991;28;20030;-76
2023/12/10 07:38:58;;;;;;;15.55;8.90;;;;;;;3.56;100.00;99416.41;5013649;28;20022;-76
2023/12/10 07:41:25;;;;;;;18.35;9.57;;;;;;;3.57;100.00;99420.81;5013514;28;20026;-77
2023/12/10 07:43:51;;;;;;;15.85;9.48;;;;;;;3.59;100.00;99421.09;5013831;28;20044;-75
2023/12/10 07:46:18;;;;;;;18.27;9.73;;;;;;;3.61;100.00;99421.44;5013786;28;20032;-75
2023/12/10 07:48:44;;;;;;;21.83;9.75;;;;;;;3.60;100.00;99420.66;5029229;28;20065;-76
2023/12/10 07:51:11;;;;;;;17.40;9.55;;;;;;;3.58;100.00;99413.88;5013461;28;20124;-78
2023/12/10 07:53:45;;;;;;;19.75;10.95;;;;;;;3.62;100.00;99431.50;5011934;28;20056;-75
2023/12/10 07:56:12;;;;;;;20.10;11.52;;;;;;;3.59;100.00;99421.09;5013492;28;20026;-76
2023/12/10 07:58:39;;;;;;;24.38;12.13;;;;;;;3.59;100.00;99432.41;5012822;28;20495;-75
2023/12/10 08:01:09;;;;;;;26.30;12.15;;;;;;;3.64;100.00;99420.50;5013300;28;20399;-75
2023/12/10 08:03:36;;;;;;;26.10;12.98;;;;;;;3.65;100.00;99434.16;4996470;28;20113;-77
2023/12/10 08:06:03;;;;;;;31.20;13.57;;;;;;;3.65;100.00;99441.84;5012156;28;20159;-77
2023/12/10 08:08:31;;;;;;;25.15;12.43;;;;;;;3.72;100.00;99437.94;5013201;28;20390;-78
2023/12/10 08:10:59;;;;;;;25.98;12.40;;;;;;;3.71;100.00;99436.38;5013342;28;20129;-80
2023/12/10 08:13:33;;;;;;;22.15;11.45;;;;;;;3.74;100.00;99432.59;5012866;28;20046;-81
2023/12/10 08:15:59;;;;;;;26.02;11.18;;;;;;;3.76;100.00;99430.09;5013284;28;20025;-78
2023/12/10 08:18:26;;;;;;;25.45;12.07;;;;;;;3.78;100.00;99438.88;5010632;28;20037;-77
2023/12/10 08:20:54;;;;;;;19.73;11.02;;;;;;;3.75;100.00;99437.00;5013140;28;20070;-76
2023/12/10 08:23:20;;;;;;;18.90;10.32;;;;;;;3.81;100.00;99446.44;5012865;28;20040;-76
2023/12/10 08:25:47;;;;;;;16.65;9.02;;;;;;;3.75;100.00;99437.78;5013047;28;20481;-75
2023/12/10 08:28:12;;;;;;;19.10;9.40;;;;;;;3.81;100.00;99438.75;5012067;28;20458;-77
2023/12/10 08:30:38;;;;;;;19.08;9.95;;;;;;;3.92;100.00;99458.88;5028095;28;20096;-76
2023/12/10 08:33:04;;;;;;;16.65;9.18;;;;;;;3.98;100.00;99456.22;5013187;28;20374;-76
2023/12/10 08:35:31;;;;;;;13.30;9.23;;;;;;;3.93;100.00;99465.31;5013029;28;20029;-75
2023/12/10 08:37:59;;;;;;;15.13;8.88;;;;;;;3.95;100.00;99468.47;5013841;28;20121;-76
2023/12/10 08:40:26;;;;;;;14.88;8.68;;;;;;;3.95;100.00;99466.44;5013488;28;20129;-76
2023/12/10 08:42:52;;;;;;;15.38;8.60;;;;;;;3.87;100.00;99455.91;5012770;28;20399;-75
2023/12/10 08:45:19;;;;;;;14.75;8.88;;;;;;;3.91;100.00;99462.97;5013246;28;20026;-77
2023/12/10 08:47:46;;;;;;;15.68;9.43;;;;;;;3.96;100.00;99459.53;5013016;28;20096;-77
2023/12/10 08:50:13;;;;;;;14.88;9.02;;;;;;;3.98;100.00;99462.66;5011165;28;20115;-79
2023/12/10 08:52:38;;;;;;;17.98;10.85;;;;;;;3.96;100.00;99462.34;5011685;28;20064;-81
2023/12/10 08:55:04;;;;;;;18.85;10.10;;;;;;;3.97;100.00;99466.72;5013339;28;20109;-81
2023/12/10 08:57:30;;;;;;;16.55;10.30;;;;;;;3.96;100.00;99467.22;5011872;28;20037;-80
2023/12/10 09:00:00;;;;;;;17.40;10.55;;;;;;;3.98;100.00;99479.63;5011282;28;20029;-79
2023/12/10 09:02:26;;;;;;;15.20;9.48;;;;;;;3.93;100.00;99477.41;5011395;28;20037;-81
2023/12/10 09:04:52;;;;;;;17.25;10.23;;;;;;;3.97;100.00;99471.63;5012585;28;20032;-81
2023/12/10 09:07:17;;;;;;;22.55;12.15;;;;;;;3.90;100.00;99457.78;5011505;28;20030;-81
2023/12/10 09:09:44;;;;;;;20.58;11.10;;;;;;;4.01;100.00;99464.56;5029225;28;20451;-80
2023/12/10 09:12:10;;;;;;;21.75;11.50;;;;;;;4.06;100.00;99475.25;5016346;28;20033;-81
2023/12/10 09:14:38;;;;;;;16.45;9.65;;;;;;;4.06;100.00;99472.44;5017693;28;20100;-81
2023/12/10 09:17:04;;;;;;;18.40;9.57;;;;;;;4.10;100.00;99474.31;5016302;28;20033;-82
2023/12/10 09:19:32;;;;;;;17.45;10.68;;;;;;;4.10;100.00;99471.47;5015608;28;20029;-82
2023/12/10 09:21:57;;;;;;;17.50;9.88;;;;;;;4.11;100.00;99475.88;5016114;28;20033;-84
2023/12/10 09:24:25;;;;;;;18.48;10.85;;;;;;;4.07;100.00;99468.31;5016244;28;20458;-81
2023/12/10 09:26:51;;;;;;;16.67;10.85;;;;;;;4.10;100.00;99472.25;5016223;28;20420;-83
2023/12/10 09:29:17;;;;;;;17.67;10.95;;;;;;;4.18;100.00;99469.91;5016074;28;20372;-86
2023/12/10 09:31:45;;;;;;;17.02;10.63;;;;;;;4.20;100.00;99465.38;5015504;28;20459;-81
2023/12/10 09:34:12;;;;;;;21.13;12.50;;;;;;;4.22;100.00;99460.00;5016390;28;20041;-83
2023/12/10 09:36:39;;;;;;;16.75;10.30;;;;;;;4.19;100.00;99460.97;5016950;28;20040;-81
2023/12/10 09:39:05;;;;;;;16.60;11.05;;;;;;;4.21;100.00;99466.16;5016562;28;20030;-82
2023/12/10 09:41:33;;;;;;;17.95;10.98;;;;;;;4.27;100.00;99475.56;5014352;28;20037;-79
2023/12/10 09:43:58;;;;;;;18.73;11.55;;;;;;;4.32;100.00;99475.72;5015790;28;20030;-82
2023/12/10 09:46:25;;;;;;;17.33;10.73;;;;;;;4.37;100.00;99477.13;5015585;28;20171;-86
2023/12/10 09:48:52;;;;;;;17.67;10.10;;;;;;;4.36;100.00;99479.22;4997923;28;20045;-83
2023/12/10 09:51:18;;;;;;;19.13;11.05;;;;;;;4.41;100.00;99477.78;5014731;28;20046;-81
2023/12/10 09:53:45;;;;;;;18.25;10.50;;;;;;;4.33;100.00;99468.81;5014072;28;20025;-79
2023/12/10 09:56:11;;;;;;;17.77;10.27;;;;;;;4.47;100.00;99487.19;5015653;28;20415;-81
2023/12/10 09:58:37;;;;;;;18.08;10.00;;;;;;;4.39;100.00;99481.09;5015446;28;20029;-83
2023/12/10 10:01:07;;;;;;;17.45;10.00;;;;;;;4.37;100.00;99466.63;5014038;28;20384;-82
2023/12/10 10:03:36;;;;;;;18.35;9.13;;;;;;;4.53;100.00;99484.53;5015124;28;20467;-79
2023/12/10 10:06:18;;;;;;;20.88;10.82;;;;;;;4.56;100.00;99486.44;5015323;28;20030;-80
2023/12/10 10:08:43;;;;;;;18.93;10.50;;;;;;;4.56;100.00;99489.28;5015267;28;20383;-82
2023/12/10 10:11:09;;;;;;;19.48;11.50;;;;;;;4.72;100.00;99494.59;5014993;28;20038;-81
2023/12/10 10:13:35;;;;;;;23.17;10.55;;;;;;;4.80;100.00;99499.47;5029154;28;20042;-81
2023/12/10 10:16:12;;;;;;;19.75;10.98;;;;;;;4.84;100.00;99500.09;5015440;28;20056;-81
2023/12/10 10:18:41;;;;;;;20.30;10.68;;;;;;;4.77;100.00;99500.41;5015255;28;20030;-83
2023/12/10 10:21:10;;;;;;;23.15;12.38;;;;;;;4.85;100.00;99503.72;4981621;28;20037;-82
2023/12/10 10:23:36;;;;;;;22.42;11.48;;;;;;;4.91;100.00;99504.63;5013580;28;20021;-79
2023/12/10 10:26:04;;;;;;;19.52;10.55;;;;;;;5.04;100.00;99495.97;5013179;28;20030;-78
2023/12/10 10:28:30;;;;;;;22.20;12.50;;;;;;;5.05;100.00;99492.66;5014796;28;20053;-79
2023/12/10 10:30:57;;;;;;;19.65;12.43;;;;;;;5.10;100.00;99492.03;5002133;28;20110;-79
2023/12/10 10:33:31;;;;;;;22.77;11.57;;;;;;;5.22;100.00;99496.72;4975700;28;20037;-78
2023/12/10 10:36:00;;;;;;;24.80;12.80;;;;;;;5.26;100.00;99494.47;4981061;28;20034;-77
2023/12/10 10:38:29;;;;;;;23.40;12.98;;;;;;;5.46;100.00;99504.50;4995278;28;20030;-82
2023/12/10 10:40:57;;;;;;;21.50;12.70;;;;;;;5.65;100.00;99501.13;4993817;28;20037;-84
2023/12/10 10:43:23;;;;;;;25.75;13.00;;;;;;;5.95;100.00;99515.47;5010035;28;20456;-79
2023/12/10 10:45:58;;;;;;;26.95;13.30;;;;;;;6.24;100.00;99522.06;4995030;28;20459;-81
2023/12/10 10:48:25;;;;;;;22.88;11.80;;;;;;;6.42;100.00;99521.19;4993477;28;20562;-81
2023/12/10 10:50:51;;;;;;;20.58;12.13;;;;;;;6.57;100.00;99513.53;4994654;28;20476;-78
2023/12/10 10:53:18;;;;;;;21.10;12.60;;;;;;;6.70;100.00;99512.47;4993385;28;20034;-79
2023/12/10 10:55:48;;;;;;;20.40;12.57;;;;;;;6.84;100.00;99517.38;4993675;28;20113;-77
2023/12/10 10:58:27;;;;;;;21.67;13.25;;;;;;;6.84;100.00;99521.00;4994572;28;20060;-79
2023/12/10 11:00:57;;;;;;;26.25;13.43;;;;;;;6.92;100.00;99519.38;4994703;28;20088;-79
2023/12/10 11:03:26;;;;;;;24.73;13.68;;;;;;;6.94;100.00;99528.19;4995028;28;20054;-80
2023/12/10 11:06:00;;;;;;;21.92;12.60;;;;;;;7.01;100.00;99524.97;5010321;28;20034;-82
2023/12/10 11:08:29;;;;;;;23.27;13.07;;;;;;;7.02;100.00;99518.03;5009045;28;20134;-80
2023/12/10 11:11:00;;;;;;;23.75;13.48;;;;;;;7.11;100.00;99528.50;4987208;28;20050;-83
2023/12/10 11:13:45;;;;;;;27.33;13.67;;;;;;;7.10;100.00;99521.25;5018104;28;20072;-81
2023/12/10 11:16:11;;;;;;;21.67;13.48;;;;;;;7.12;100.00;99524.41;4993086;28;20034;-79
2023/12/10 11:19:04;;;;;;;22.95;14.38;;;;;;;7.13;100.00;99522.34;4982770;28;20051;-81